createdAt,value
2019-02-24T00:03:54.728Z,"    0"
2019-02-24T00:08:51.071Z,"    0"
2019-02-24T00:13:46.308Z,"    0"
2019-02-24T00:18:41.939Z,"    0"
2019-02-24T00:23:37.547Z,"    0"
2019-02-24T00:28:34.233Z,"    0"
2019-02-24T00:33:29.505Z,"    0"
2019-02-24T00:38:25.048Z,"    0"
2019-02-24T00:43:20.388Z,"    0"
2019-02-24T00:48:16.751Z,"    0"
2019-02-24T00:53:12.377Z,"    0"
2019-02-24T00:58:15.974Z,"    0"
2019-02-24T01:03:06.811Z,"    0"
2019-02-24T01:08:02.206Z,"    0"
2019-02-24T01:12:57.673Z,"    0"
2019-02-24T01:17:53.898Z,"    0"
2019-02-24T01:22:49.794Z,"    0"
2019-02-24T01:27:45.364Z,"    0"
2019-02-24T01:32:40.821Z,"    0"
2019-02-24T01:37:36.408Z,"    0"
2019-02-24T01:42:31.861Z,"    0"
2019-02-24T01:47:27.217Z,"    0"
2019-02-24T01:52:22.871Z,"    0"
2019-02-24T01:57:18.637Z,"    0"
2019-02-24T02:02:14.269Z,"    0"
2019-02-24T02:07:10.056Z,"    0"
2019-02-24T02:12:05.795Z,"    0"
2019-02-24T02:17:01.539Z,"    0"
2019-02-24T02:21:56.771Z,"    0"
2019-02-24T02:26:53.669Z,"    0"
2019-02-24T02:31:49.853Z,"    0"
2019-02-24T02:36:45.012Z,"    0"
2019-02-24T02:41:40.419Z,"    0"
2019-02-24T02:46:35.987Z,"    0"
2019-02-24T02:51:31.567Z,"    0"
2019-02-24T02:56:28.045Z,"    0"
2019-02-24T03:01:23.089Z,"    0"
2019-02-24T03:06:18.905Z,"    0"
2019-02-24T03:11:14.525Z,"    0"
2019-02-24T03:16:10.636Z,"    0"
2019-02-24T03:21:06.221Z,"    0"
2019-02-24T03:26:01.810Z,"    0"
2019-02-24T03:30:57.415Z,"    0"
2019-02-24T03:35:53.165Z,"    0"
2019-02-24T03:40:48.836Z,"    0"
2019-02-24T03:45:44.355Z,"    0"
2019-02-24T03:50:39.768Z,"    0"
2019-02-24T03:55:35.311Z,"    0"
2019-02-24T04:00:31.047Z,"    0"
2019-02-24T04:05:27.739Z,"    0"
2019-02-24T04:10:22.909Z,"    0"
2019-02-24T04:15:19.178Z,"    0"
2019-02-24T04:20:15.641Z,"    0"
2019-02-24T04:25:11.476Z,"    0"
2019-02-24T04:30:07.136Z,"    0"
2019-02-24T04:35:03.769Z,"    0"
2019-02-24T04:39:58.988Z,"    0"
2019-02-24T04:44:54.737Z,"    0"
2019-02-24T04:49:50.884Z,"    0"
2019-02-24T04:54:46.380Z,"    0"
2019-02-24T04:59:42.067Z,"    0"
2019-02-24T05:04:37.455Z,"    0"
2019-02-24T05:09:33.486Z,"    0"
2019-02-24T05:14:29.113Z,"    0"
2019-02-24T05:19:24.914Z,"    0"
2019-02-24T05:24:20.548Z,"    0"
2019-02-24T05:29:16.978Z,"    0"
2019-02-24T05:34:12.366Z,"    0"
2019-02-24T05:39:09.023Z,"    0"
2019-02-24T05:44:04.151Z,"    0"
2019-02-24T05:49:00.684Z,"    0"
2019-02-24T05:53:55.855Z,"    0"
2019-02-24T05:58:51.240Z,"    4"
2019-02-24T06:03:47.762Z,"    8"
2019-02-24T06:08:43.649Z,"   20"
2019-02-24T06:13:39.158Z,"   40"
2019-02-24T06:18:35.995Z,"   76"
2019-02-24T06:23:31.399Z,"  132"
2019-02-24T06:28:27.087Z,"  208"
2019-02-24T06:33:23.682Z,"  312"
2019-02-24T06:38:18.902Z,"  440"
2019-02-24T06:43:15.407Z,"  584"
2019-02-24T06:48:11.766Z,"  732"
2019-02-24T06:53:07.149Z,"  860"
2019-02-24T06:58:03.789Z,"  984"
2019-02-24T07:02:58.903Z," 1108"
2019-02-24T07:07:54.420Z," 1236"
2019-02-24T07:12:50.057Z," 1348"
2019-02-24T07:17:46.234Z," 1880"
2019-02-24T07:22:41.952Z," 1664"
2019-02-24T07:27:37.639Z," 1820"
2019-02-24T07:32:34.365Z," 2156"
2019-02-24T07:37:29.715Z," 2272"
2019-02-24T07:42:25.444Z," 2500"
2019-02-24T07:47:21.598Z," 2280"
2019-02-24T07:52:17.741Z," 3532"
2019-02-24T07:57:13.498Z," 2372"
2019-02-24T08:02:11.085Z," 2172"
2019-02-24T08:07:07.653Z," 2352"
2019-02-24T08:12:03.915Z," 2496"
2019-02-24T08:16:59.794Z," 3356"
2019-02-24T08:21:56.427Z," 2528"
2019-02-24T08:26:53.214Z," 2800"
2019-02-24T08:31:49.222Z," 2920"
2019-02-24T08:36:45.707Z," 3468"
2019-02-24T08:41:42.210Z," 3260"
2019-02-24T08:46:37.569Z," 2580"
2019-02-24T08:51:34.686Z," 2552"
2019-02-24T08:56:30.705Z," 3328"
2019-02-24T09:01:27.713Z," 3028"
2019-02-24T09:06:25.083Z," 5936"
2019-02-24T09:11:20.586Z," 2784"
2019-02-24T09:16:16.338Z," 5160"
2019-02-24T09:21:12.145Z," 2732"
2019-02-24T09:26:07.875Z," 3976"
2019-02-24T09:31:04.535Z," 4640"
2019-02-24T09:36:01.053Z," 6056"
2019-02-24T09:40:57.175Z," 4932"
2019-02-24T09:45:53.637Z," 5232"
2019-02-24T09:50:49.403Z," 8580"
2019-02-24T09:55:46.310Z," 8844"
2019-02-24T10:00:43.397Z,12812
2019-02-24T10:05:39.761Z," 7036"
2019-02-24T10:10:35.764Z," 6500"
2019-02-24T10:15:31.636Z,12004
2019-02-24T10:20:27.777Z,16416
2019-02-24T10:25:24.878Z," 6580"
2019-02-24T10:30:21.086Z,11564
2019-02-24T10:35:17.179Z,10864
2019-02-24T10:40:12.707Z," 7760"
2019-02-24T10:45:08.826Z,24224
2019-02-24T10:50:04.941Z,18240
2019-02-24T10:55:00.759Z,30528
2019-02-24T10:59:56.826Z,31936
2019-02-24T11:04:53.000Z,14304
2019-02-24T11:09:48.918Z,17664
2019-02-24T11:14:44.784Z,20992
2019-02-24T11:19:40.894Z,20896
2019-02-24T11:24:36.987Z,32736
2019-02-24T11:29:34.552Z,45440
2019-02-24T11:34:30.732Z,28480
2019-02-24T11:39:26.919Z,33216
2019-02-24T11:44:24.446Z,32768
2019-02-24T11:49:20.370Z,23808
2019-02-24T11:54:17.754Z,22560
2019-02-24T11:59:13.342Z,14504
2019-02-24T12:04:08.827Z,15988
2019-02-24T12:09:05.431Z," 8972"
2019-02-24T12:14:01.101Z," 6892"
2019-02-24T12:18:57.664Z," 6104"
2019-02-24T12:23:53.035Z," 9872"
2019-02-24T12:28:50.644Z,13796
2019-02-24T12:33:45.884Z,15424
2019-02-24T12:38:41.778Z," 7520"
2019-02-24T12:43:37.690Z,12320
2019-02-24T12:48:34.017Z,13104
2019-02-24T12:53:29.632Z,19616
2019-02-24T12:58:25.524Z," 5112"
2019-02-24T13:03:23.960Z," 4080"
2019-02-24T13:08:19.525Z," 3732"
2019-02-24T13:13:15.382Z," 3252"
2019-02-24T13:18:12.045Z," 3048"
2019-02-24T13:23:07.495Z," 2852"
2019-02-24T13:28:03.247Z," 2900"
2019-02-24T13:32:58.957Z," 3012"
2019-02-24T13:37:55.994Z," 3324"
2019-02-24T13:42:52.751Z," 3640"
2019-02-24T13:47:48.370Z," 3692"
2019-02-24T13:52:44.179Z," 3692"
2019-02-24T13:57:41.141Z," 3516"
2019-02-24T14:02:37.087Z," 3368"
2019-02-24T14:07:33.583Z," 3380"
2019-02-24T14:12:29.802Z," 3452"
2019-02-24T14:17:25.712Z," 3436"
2019-02-24T14:22:22.993Z," 3348"
2019-02-24T14:27:18.357Z," 3364"
2019-02-24T14:32:13.701Z," 3168"
2019-02-24T14:37:09.699Z," 2920"
2019-02-24T14:42:05.271Z," 2716"
2019-02-24T14:47:01.186Z," 2640"
2019-02-24T14:51:57.320Z," 2728"
2019-02-24T14:56:53.103Z," 2712"
2019-02-24T15:01:48.769Z," 2700"
2019-02-24T15:06:44.420Z," 2584"
2019-02-24T15:11:40.058Z," 2552"
2019-02-24T15:16:36.120Z," 2548"
2019-02-24T15:21:31.934Z," 2524"
2019-02-24T15:26:29.227Z," 2060"
2019-02-24T15:31:25.705Z," 1772"
2019-02-24T15:36:21.066Z," 1644"
2019-02-24T15:41:17.020Z," 1584"
2019-02-24T15:46:14.150Z," 1524"
2019-02-24T15:51:10.730Z," 1456"
2019-02-24T15:56:06.198Z," 1388"
2019-02-24T16:01:02.146Z," 1316"
2019-02-24T16:05:58.238Z," 1244"
2019-02-24T16:10:55.023Z," 1156"
2019-02-24T16:15:50.671Z," 1084"
2019-02-24T16:20:46.518Z,"  896"
2019-02-24T16:25:42.762Z,"  772"
2019-02-24T16:30:39.391Z,"  692"
2019-02-24T16:35:34.767Z,"  588"
2019-02-24T16:40:31.148Z,"  464"
2019-02-24T16:45:26.655Z,"  340"
2019-02-24T16:50:22.324Z,"  256"
2019-02-24T16:55:17.807Z,"  180"
2019-02-24T17:00:13.461Z,"  120"
2019-02-24T17:05:13.290Z,"   68"
2019-02-24T17:10:07.800Z,"   36"
2019-02-24T17:15:04.533Z,"   16"
2019-02-24T17:19:59.817Z,"    8"
2019-02-24T17:24:55.209Z,"    4"
2019-02-24T17:29:51.128Z,"    0"
2019-02-24T17:34:46.774Z,"    0"
2019-02-24T17:39:43.581Z,"    0"
2019-02-24T17:44:38.650Z,"    0"
2019-02-24T17:49:34.689Z,"    0"
2019-02-24T17:54:30.436Z,"    0"
2019-02-24T17:59:25.962Z,"    0"
2019-02-24T18:04:21.815Z,"    0"
2019-02-24T18:09:17.569Z,"    0"
2019-02-24T18:14:14.230Z,"    0"
2019-02-24T18:19:09.704Z,"    0"
2019-02-24T18:24:05.452Z,"    0"
2019-02-24T18:29:02.545Z,"    0"
2019-02-24T18:33:59.055Z,"    0"
2019-02-24T18:38:55.407Z,"    0"
2019-02-24T18:43:51.657Z,"    0"
2019-02-24T18:48:47.315Z,"    0"
2019-02-24T18:53:44.185Z,"    0"
2019-02-24T18:58:39.570Z,"    0"
2019-02-24T19:03:35.413Z,"    0"
2019-02-24T19:08:32.344Z,"    0"
2019-02-24T19:13:27.584Z,"    0"
2019-02-24T19:18:23.555Z,"    0"
2019-02-24T19:23:21.349Z,"    0"
2019-02-24T19:28:16.712Z,"    0"
2019-02-24T19:33:12.218Z,"    0"
2019-02-24T19:38:07.920Z,"    0"
2019-02-24T19:43:04.441Z,"    0"
2019-02-24T19:47:59.725Z,"    0"
2019-02-24T19:52:56.566Z,"    0"
2019-02-24T19:57:53.040Z,"    0"
2019-02-24T20:02:49.571Z,"    0"
2019-02-24T20:07:44.855Z,"    0"
2019-02-24T20:12:40.834Z,"    0"
2019-02-24T20:17:37.479Z,"    0"
2019-02-24T20:22:34.270Z,"    0"
2019-02-24T20:27:30.074Z,"    0"
2019-02-24T20:32:25.852Z,"    0"
2019-02-24T20:37:21.903Z,"    0"
2019-02-24T20:42:17.600Z,"    0"
2019-02-24T20:47:13.949Z,"    0"
2019-02-24T20:52:10.751Z,"    0"
2019-02-24T20:57:07.003Z,"    0"
2019-02-24T21:02:03.457Z,"    0"
2019-02-24T21:06:58.929Z,"    0"
2019-02-24T21:11:55.736Z,"    0"
2019-02-24T21:16:51.306Z,"    0"
2019-02-24T21:21:46.907Z,"    0"
2019-02-24T21:26:43.727Z,"    0"
2019-02-24T21:31:39.168Z,"    0"
2019-02-24T21:36:35.798Z,"    0"
2019-02-24T21:41:31.829Z,"    0"
2019-02-24T21:46:28.472Z,"    0"
2019-02-24T21:51:23.867Z,"    0"
2019-02-24T21:56:20.667Z,"    0"
2019-02-24T22:01:16.371Z,"    0"
2019-02-24T22:06:13.062Z,"    0"
2019-02-24T22:11:08.151Z,"    0"
2019-02-24T22:16:03.974Z,"    0"
2019-02-24T22:20:59.807Z,"    0"
2019-02-24T22:25:55.396Z,"    0"
2019-02-24T22:30:51.004Z,"    0"
2019-02-24T22:35:46.238Z,"    0"
2019-02-24T22:40:43.993Z,"    0"
2019-02-24T22:45:39.238Z,"    0"
2019-02-24T22:50:35.891Z,"    0"
2019-02-24T22:55:31.352Z,"    0"
2019-02-24T23:00:27.192Z,"    0"
2019-02-24T23:05:23.544Z,"    0"
2019-02-24T23:10:20.047Z,"    0"
2019-02-24T23:15:16.766Z,"    0"
2019-02-24T23:20:13.088Z,"    0"
2019-02-24T23:25:09.165Z,"    0"
2019-02-24T23:30:04.461Z,"    0"
2019-02-24T23:35:02.053Z,"    0"
2019-02-24T23:39:57.401Z,"    0"
2019-02-24T23:44:53.191Z,"    0"
2019-02-24T23:49:49.873Z,"    0"
2019-02-24T23:54:46.400Z,"    0"
2019-02-24T23:59:42.128Z,"    0"
